createdAt,value
2018-12-09T00:01:48.386Z,12.60
2018-12-09T00:04:20.639Z,8.77
2018-12-09T00:06:52.988Z,8.60
2018-12-09T00:09:23.492Z,5.90
2018-12-09T00:11:54.150Z,5.67
2018-12-09T00:14:24.392Z,4.63
2018-12-09T00:16:54.639Z,4.10
2018-12-09T00:19:25.191Z,3.03
2018-12-09T00:21:55.877Z,3.37
2018-12-09T00:24:25.999Z,2.80
2018-12-09T00:26:56.947Z,2.97
2018-12-09T00:29:27.356Z,2.90
2018-12-09T00:31:58.676Z,3.33
2018-12-09T00:34:30.078Z,2.50
2018-12-09T00:37:00.348Z,2.87
2018-12-09T00:39:30.433Z,2.77
2018-12-09T00:42:00.975Z,2.47
2018-12-09T00:44:33.330Z,2.60
2018-12-09T00:47:06.178Z,2.47
2018-12-09T00:49:36.456Z,2.70
2018-12-09T00:52:06.794Z,2.03
2018-12-09T00:54:37.800Z,2.17
2018-12-09T00:57:08.069Z,2.40
2018-12-09T00:59:38.634Z,2.33
2018-12-09T01:02:10.699Z,2.80
2018-12-09T01:04:41.739Z,2.93
2018-12-09T01:07:12.145Z,2.52
2018-12-09T01:09:42.839Z,2.70
2018-12-09T01:12:13.912Z,2.37
2018-12-09T01:14:44.158Z,2.60
2018-12-09T01:17:15.958Z,2.60
2018-12-09T01:19:47.238Z,2.30
2018-12-09T01:22:18.095Z,2.85
2018-12-09T01:24:48.263Z,2.80
2018-12-09T01:27:18.624Z,2.45
2018-12-09T01:29:49.392Z,2.53
2018-12-09T01:32:20.744Z,2.50
2018-12-09T01:34:51.054Z,2.50
2018-12-09T01:37:22.290Z,2.00
2018-12-09T01:39:53.992Z,2.40
2018-12-09T01:42:24.449Z,2.08
2018-12-09T01:44:55.260Z,1.97
2018-12-09T01:47:25.553Z,2.00
2018-12-09T01:49:56.005Z,2.20
2018-12-09T01:52:26.344Z,2.60
2018-12-09T01:54:56.600Z,2.30
2018-12-09T01:57:26.786Z,2.37
2018-12-09T01:59:57.064Z,2.20
2018-12-09T02:02:27.565Z,2.20
2018-12-09T02:04:57.837Z,1.97
2018-12-09T02:07:28.070Z,2.53
2018-12-09T02:09:58.824Z,2.60
2018-12-09T02:12:29.329Z,2.57
2018-12-09T02:14:59.554Z,2.70
2018-12-09T02:17:29.705Z,2.30
2018-12-09T02:20:00.262Z,2.40
2018-12-09T02:22:30.538Z,2.40
2018-12-09T02:25:01.161Z,2.00
2018-12-09T02:27:31.977Z,2.20
2018-12-09T02:30:02.288Z,2.17
2018-12-09T02:32:36.529Z,1.87
2018-12-09T02:35:07.945Z,1.80
2018-12-09T02:37:38.336Z,1.77
2018-12-09T02:40:08.802Z,1.50
2018-12-09T02:42:38.932Z,1.40
2018-12-09T02:45:09.656Z,1.27
2018-12-09T02:47:40.417Z,1.47
2018-12-09T02:50:10.589Z,1.67
2018-12-09T02:52:41.596Z,1.23
2018-12-09T02:55:11.674Z,1.30
2018-12-09T03:00:19.081Z,1.20
2018-12-09T03:02:49.287Z,1.27
2018-12-09T03:05:23.646Z,1.20
2018-12-09T03:07:53.989Z,1.33
2018-12-09T03:10:24.270Z,1.10
2018-12-09T03:12:54.518Z,0.80
2018-12-09T03:18:01.062Z,1.17
2018-12-09T03:20:32.809Z,1.10
2018-12-09T03:23:04.248Z,1.27
2018-12-09T03:25:34.349Z,1.10
2018-12-09T03:28:04.630Z,0.90
2018-12-09T03:30:35.413Z,1.00
2018-12-09T03:35:48.320Z,1.10
2018-12-09T03:40:54.687Z,0.90
2018-12-09T03:43:29.255Z,1.40
2018-12-09T03:45:59.863Z,1.60
2018-12-09T03:48:30.024Z,1.40
2018-12-09T03:51:00.267Z,1.33
2018-12-09T03:56:07.116Z,0.90
2018-12-09T03:58:39.270Z,1.23
2018-12-09T04:03:46.206Z,1.07
2018-12-09T04:06:16.679Z,1.30
2018-12-09T04:08:48.604Z,1.70
2018-12-09T04:11:19.066Z,1.40
2018-12-09T04:13:50.964Z,1.37
2018-12-09T04:16:21.793Z,1.50
2018-12-09T04:18:52.079Z,1.20
2018-12-09T04:21:22.758Z,1.42
2018-12-09T04:26:29.973Z,1.47
2018-12-09T04:29:00.086Z,1.30
2018-12-09T04:31:30.457Z,1.20
2018-12-09T04:34:00.908Z,1.10
2018-12-09T04:36:31.246Z,1.20
2018-12-09T04:39:01.532Z,1.00
2018-12-09T04:44:09.254Z,0.90
2018-12-09T04:46:39.438Z,0.80
2018-12-09T04:49:09.801Z,0.85
2018-12-09T04:51:56.203Z,0.90
2018-12-09T04:54:28.300Z,1.00
2018-12-09T04:56:58.620Z,0.83
2018-12-09T04:59:31.884Z,1.20
2018-12-09T05:02:02.788Z,1.00
2018-12-09T05:07:11.146Z,1.10
2018-12-09T05:09:41.118Z,1.20
2018-12-09T05:12:11.522Z,0.88
2018-12-09T05:14:42.089Z,1.27
2018-12-09T05:17:12.273Z,1.10
2018-12-09T05:19:43.686Z,1.30
2018-12-09T05:22:15.033Z,1.03
2018-12-09T05:24:45.236Z,1.20
2018-12-09T05:27:16.116Z,1.17
2018-12-09T05:29:46.655Z,1.30
2018-12-09T05:32:17.441Z,1.10
2018-12-09T05:37:24.356Z,1.47
2018-12-09T05:42:31.131Z,1.23
2018-12-09T05:45:01.184Z,1.40
2018-12-09T05:47:32.901Z,1.65
2018-12-09T05:50:03.110Z,1.30
2018-12-09T05:52:33.756Z,1.62
2018-12-09T05:55:04.055Z,1.70
2018-12-09T05:57:39.271Z,1.70
2018-12-09T06:00:09.979Z,1.97
2018-12-09T06:02:51.882Z,2.13
2018-12-09T06:05:22.341Z,2.40
2018-12-09T06:07:53.351Z,2.00
2018-12-09T06:10:24.030Z,1.95
2018-12-09T06:12:54.677Z,1.87
2018-12-09T06:15:24.839Z,2.00
2018-12-09T06:17:54.999Z,2.37
2018-12-09T06:20:25.357Z,2.02
2018-12-09T06:22:55.890Z,2.20
2018-12-09T06:25:26.820Z,2.27
2018-12-09T06:27:57.108Z,2.30
2018-12-09T06:30:27.732Z,2.57
2018-12-09T06:32:58.549Z,2.27
2018-12-09T06:35:29.058Z,2.60
2018-12-09T06:37:59.449Z,2.10
2018-12-09T06:40:30.059Z,1.80
2018-12-09T06:43:00.337Z,1.50
2018-12-09T06:45:30.584Z,2.00
2018-12-09T06:48:01.372Z,1.60
2018-12-09T06:50:31.903Z,1.65
2018-12-09T06:53:02.877Z,1.70
2018-12-09T06:55:34.159Z,1.50
2018-12-09T06:58:04.339Z,1.60
2018-12-09T07:00:35.190Z,1.40
2018-12-09T07:03:05.470Z,1.40
2018-12-09T07:05:36.221Z,1.20
2018-12-09T07:08:06.998Z,1.10
2018-12-09T07:10:37.911Z,1.10
2018-12-09T07:13:08.060Z,0.97
2018-12-09T07:15:38.319Z,1.07
2018-12-09T07:18:08.395Z,1.27
2018-12-09T07:20:39.678Z,1.60
2018-12-09T07:23:10.214Z,1.42
2018-12-09T07:25:41.611Z,1.40
2018-12-09T07:28:12.040Z,1.37
2018-12-09T07:30:42.605Z,1.30
2018-12-09T07:35:49.780Z,1.57
2018-12-09T07:38:19.830Z,1.57
2018-12-09T07:40:50.194Z,1.83
2018-12-09T07:43:21.311Z,1.60
2018-12-09T07:45:51.813Z,2.30
2018-12-09T07:48:22.100Z,2.12
2018-12-09T07:50:52.466Z,2.10
2018-12-09T07:53:22.788Z,2.13
2018-12-09T07:55:53.497Z,2.23
2018-12-09T07:58:23.676Z,2.70
2018-12-09T08:00:53.785Z,1.60
2018-12-09T08:03:24.311Z,1.90
2018-12-09T08:05:55.051Z,1.67
2018-12-09T08:08:25.294Z,1.70
2018-12-09T08:10:55.664Z,1.17
2018-12-09T08:13:26.084Z,1.30
2018-12-09T08:15:57.781Z,0.60
2018-12-09T08:18:27.998Z,0.70
2018-12-09T08:20:58.257Z,0.77
2018-12-09T08:23:28.559Z,1.10
2018-12-09T08:25:59.297Z,0.60
2018-12-09T08:28:30.165Z,0.70
2018-12-09T08:31:00.918Z,0.60
2018-12-09T08:33:32.016Z,0.70
2018-12-09T08:36:02.748Z,0.87
2018-12-09T08:38:33.731Z,0.77
2018-12-09T08:41:04.044Z,0.60
2018-12-09T08:43:34.259Z,0.70
2018-12-09T08:46:07.217Z,0.70
2018-12-09T08:48:38.528Z,0.60
2018-12-09T08:51:08.582Z,0.80
2018-12-09T08:53:38.888Z,0.90
2018-12-09T08:56:11.066Z,0.70
2018-12-09T08:58:41.402Z,0.87
2018-12-09T09:01:12.274Z,0.70
2018-12-09T09:03:43.127Z,1.13
2018-12-09T09:06:13.393Z,1.10
2018-12-09T09:08:43.916Z,1.10
2018-12-09T09:11:14.320Z,1.10
2018-12-09T09:13:45.173Z,1.00
2018-12-09T09:16:15.596Z,1.20
2018-12-09T09:18:46.513Z,1.47
2018-12-09T09:21:16.674Z,1.00
2018-12-09T09:23:47.177Z,1.30
2018-12-09T09:26:17.300Z,1.15
2018-12-09T09:28:47.485Z,1.27
2018-12-09T09:31:17.701Z,1.20
2018-12-09T09:33:47.950Z,1.27
2018-12-09T09:36:18.071Z,1.20
2018-12-09T09:38:48.515Z,1.53
2018-12-09T09:41:18.630Z,1.52
2018-12-09T09:43:49.199Z,1.50
2018-12-09T09:46:19.497Z,1.67
2018-12-09T09:48:49.996Z,1.72
2018-12-09T09:51:21.227Z,1.40
2018-12-09T09:53:52.189Z,1.50
2018-12-09T09:56:22.409Z,1.67
2018-12-09T09:58:52.587Z,1.37
2018-12-09T10:01:23.457Z,1.50
2018-12-09T10:03:55.124Z,2.00
2018-12-09T10:06:26.099Z,1.60
2018-12-09T10:08:56.342Z,1.83
2018-12-09T10:11:27.375Z,1.67
2018-12-09T10:13:58.311Z,1.83
2018-12-09T10:19:04.892Z,1.90
2018-12-09T10:21:35.060Z,1.63
2018-12-09T10:24:05.928Z,1.50
2018-12-09T10:26:36.728Z,1.67
2018-12-09T10:29:08.431Z,1.67
2018-12-09T10:31:38.781Z,1.67
2018-12-09T10:34:08.931Z,2.07
2018-12-09T10:36:39.172Z,1.73
2018-12-09T10:39:09.443Z,2.37
2018-12-09T10:41:39.620Z,2.00
2018-12-09T10:44:09.760Z,1.77
2018-12-09T10:46:39.772Z,1.87
2018-12-09T10:49:09.934Z,2.10
2018-12-09T10:54:17.679Z,1.73
2018-12-09T10:56:47.799Z,1.83
2018-12-09T10:59:17.813Z,2.27
2018-12-09T11:01:53.024Z,1.90
2018-12-09T11:04:23.308Z,1.90
2018-12-09T11:06:54.471Z,2.33
2018-12-09T11:09:24.571Z,1.97
2018-12-09T11:11:54.862Z,1.90
2018-12-09T11:14:25.883Z,1.93
2018-12-09T11:16:56.616Z,1.80
2018-12-09T11:19:26.883Z,1.70
2018-12-09T11:21:57.150Z,1.67
2018-12-09T11:24:27.182Z,1.70
2018-12-09T11:26:57.653Z,1.77
2018-12-09T11:29:27.975Z,1.60
2018-12-09T11:31:58.844Z,1.77
2018-12-09T11:34:29.318Z,1.63
2018-12-09T11:36:59.680Z,1.60
2018-12-09T11:39:29.686Z,1.90
2018-12-09T11:41:59.657Z,1.53
2018-12-09T11:44:29.712Z,1.97
2018-12-09T11:47:00.467Z,2.13
2018-12-09T11:49:31.091Z,1.90
2018-12-09T11:52:01.607Z,1.90
2018-12-09T11:57:08.078Z,1.53
2018-12-09T11:59:38.138Z,1.33
2018-12-09T12:02:08.156Z,1.30
2018-12-09T12:04:39.641Z,1.17
2018-12-09T12:07:09.963Z,1.27
2018-12-09T12:09:41.026Z,1.62
2018-12-09T12:12:11.907Z,1.40
2018-12-09T12:14:42.271Z,1.23
2018-12-09T12:17:12.599Z,1.67
2018-12-09T12:19:42.609Z,1.60
2018-12-09T12:22:12.776Z,1.50
2018-12-09T12:24:43.054Z,1.77
2018-12-09T12:27:13.245Z,1.70
2018-12-09T12:29:43.686Z,1.90
2018-12-09T12:32:13.854Z,1.80
2018-12-09T12:34:50.604Z,2.00
2018-12-09T12:37:21.058Z,2.10
2018-12-09T12:39:52.103Z,1.73
2018-12-09T12:42:22.512Z,2.17
2018-12-09T12:44:52.853Z,1.80
2018-12-09T12:47:23.653Z,1.90
2018-12-09T12:49:54.306Z,1.97
2018-12-09T12:52:25.401Z,2.20
2018-12-09T12:54:55.979Z,2.30
2018-12-09T12:57:30.369Z,1.70
2018-12-09T13:00:02.200Z,2.20
2018-12-09T13:02:33.279Z,2.60
2018-12-09T13:05:03.898Z,2.50
2018-12-09T13:07:35.238Z,2.30
2018-12-09T13:10:06.378Z,2.60
2018-12-09T13:12:36.687Z,2.80
2018-12-09T13:15:09.041Z,2.73
2018-12-09T13:17:43.185Z,2.47
2018-12-09T13:20:18.070Z,2.70
2018-12-09T13:22:48.652Z,2.47
2018-12-09T13:25:18.883Z,3.05
2018-12-09T13:27:49.244Z,2.77
2018-12-09T13:30:19.341Z,3.08
2018-12-09T13:32:50.441Z,3.20
2018-12-09T13:35:22.295Z,3.30
2018-12-09T13:37:52.839Z,3.40
2018-12-09T13:40:23.730Z,3.58
2018-12-09T13:42:54.328Z,3.87
2018-12-09T13:45:25.235Z,3.50
2018-12-09T13:47:56.200Z,3.90
2018-12-09T13:50:27.099Z,3.40
2018-12-09T13:52:58.077Z,3.50
2018-12-09T13:55:28.295Z,3.23
2018-12-09T13:57:58.884Z,3.57
2018-12-09T14:00:29.416Z,3.43
2018-12-09T14:03:00.194Z,4.03
2018-12-09T14:05:31.894Z,4.20
2018-12-09T14:08:02.261Z,4.03
2018-12-09T14:10:33.915Z,3.80
2018-12-09T14:13:03.999Z,4.00
2018-12-09T14:15:35.185Z,3.90
2018-12-09T14:18:05.337Z,4.07
2018-12-09T14:20:36.086Z,4.27
2018-12-09T14:23:06.773Z,3.83
2018-12-09T14:25:37.658Z,3.90
2018-12-09T14:28:07.727Z,3.40
2018-12-09T14:33:14.370Z,3.80
2018-12-09T14:35:44.465Z,3.83
2018-12-09T14:38:14.689Z,4.00
2018-12-09T14:40:44.990Z,3.77
2018-12-09T14:43:15.352Z,3.60
2018-12-09T14:45:48.886Z,3.87
2018-12-09T14:48:17.952Z,4.10
2018-12-09T14:50:52.337Z,3.73
2018-12-09T14:53:22.642Z,5.00
2018-12-09T14:55:53.081Z,5.13
2018-12-09T14:58:23.616Z,4.55
2018-12-09T15:00:53.821Z,4.37
2018-12-09T15:03:24.470Z,4.60
2018-12-09T15:05:55.066Z,4.50
2018-12-09T15:08:26.010Z,4.57
2018-12-09T15:10:56.379Z,4.80
2018-12-09T15:13:26.871Z,5.10
2018-12-09T15:15:57.299Z,5.03
2018-12-09T15:18:27.687Z,5.67
2018-12-09T15:20:57.910Z,5.90
2018-12-09T15:23:28.312Z,6.23
2018-12-09T15:25:59.318Z,6.80
2018-12-09T15:28:29.867Z,7.40
2018-12-09T15:31:00.236Z,7.60
2018-12-09T15:33:31.707Z,7.72
2018-12-09T15:36:02.497Z,8.13
2018-12-09T15:38:32.847Z,7.53
2018-12-09T15:41:03.117Z,7.20
2018-12-09T15:43:33.252Z,8.50
2018-12-09T15:46:03.358Z,7.67
2018-12-09T15:51:11.743Z,8.60
2018-12-09T15:53:41.808Z,7.87
2018-12-09T15:56:11.907Z,8.90
2018-12-09T16:01:19.537Z,8.40
2018-12-09T16:03:49.492Z,7.93
2018-12-09T16:06:19.969Z,8.40
2018-12-09T16:08:50.084Z,8.70
2018-12-09T16:11:21.350Z,8.28
2018-12-09T16:13:52.177Z,8.67
2018-12-09T16:18:58.963Z,8.60
2018-12-09T16:24:05.936Z,8.43
2018-12-09T16:29:20.281Z,8.33
2018-12-09T16:31:50.343Z,8.73
2018-12-09T16:34:21.025Z,8.97
2018-12-09T16:36:51.374Z,9.77
2018-12-09T16:39:22.043Z,9.03
2018-12-09T16:41:52.623Z,8.80
2018-12-09T16:44:22.866Z,9.07
2018-12-09T16:46:52.938Z,8.77
2018-12-09T16:49:24.154Z,9.33
2018-12-09T16:51:54.743Z,9.65
2018-12-09T16:54:25.029Z,9.20
2018-12-09T16:56:55.470Z,9.67
2018-12-09T17:02:02.096Z,10.28
2018-12-09T17:04:32.597Z,8.73
2018-12-09T17:07:03.770Z,8.70
2018-12-09T17:09:34.286Z,8.20
2018-12-09T17:12:05.189Z,8.63
2018-12-09T17:14:35.321Z,8.17
2018-12-09T17:17:05.721Z,7.60
2018-12-09T17:19:37.727Z,8.10
2018-12-09T17:22:08.221Z,7.30
2018-12-09T17:24:38.614Z,6.90
2018-12-09T17:27:09.150Z,6.00
2018-12-09T17:29:39.312Z,5.53
2018-12-09T17:32:09.805Z,5.65
2018-12-09T17:34:40.289Z,5.50
2018-12-09T17:39:47.693Z,6.10
2018-12-09T17:42:18.209Z,6.30
2018-12-09T17:44:49.436Z,5.87
2018-12-09T17:47:19.916Z,5.62
2018-12-09T17:49:50.183Z,6.20
2018-12-09T17:52:24.879Z,6.23
2018-12-09T17:57:32.847Z,5.83
2018-12-09T18:00:03.164Z,6.40
2018-12-09T18:02:34.309Z,6.33
2018-12-09T18:05:06.285Z,6.35
2018-12-09T18:07:36.730Z,6.40
2018-12-09T18:10:07.344Z,6.60
2018-12-09T18:12:38.446Z,6.30
2018-12-09T18:15:13.176Z,7.30
2018-12-09T18:17:43.569Z,6.77
2018-12-09T18:20:13.969Z,7.33
2018-12-09T18:22:44.421Z,7.50
2018-12-09T18:25:14.675Z,7.37
2018-12-09T18:30:21.848Z,8.93
2018-12-09T18:32:53.524Z,9.27
2018-12-09T18:35:24.795Z,8.03
2018-12-09T18:37:55.344Z,8.70
2018-12-09T18:43:03.293Z,9.50
2018-12-09T18:45:33.792Z,9.17
2018-12-09T18:48:04.756Z,10.47
2018-12-09T18:50:38.929Z,10.17
2018-12-09T18:55:47.061Z,11.20
2018-12-09T18:58:17.640Z,10.67
2018-12-09T19:00:49.354Z,10.97
2018-12-09T19:03:19.788Z,10.93
2018-12-09T19:05:50.539Z,11.10
2018-12-09T19:08:21.116Z,11.27
2018-12-09T19:10:51.403Z,11.20
2018-12-09T19:13:22.261Z,12.00
2018-12-09T19:15:52.666Z,11.93
2018-12-09T19:21:00.429Z,11.90
2018-12-09T19:23:31.138Z,11.83
2018-12-09T19:26:01.792Z,11.53
2018-12-09T19:28:34.367Z,11.20
2018-12-09T19:31:05.856Z,11.33
2018-12-09T19:33:36.649Z,11.57
2018-12-09T19:36:07.292Z,11.90
2018-12-09T19:38:40.382Z,11.27
2018-12-09T19:41:10.591Z,11.85
2018-12-09T19:43:41.193Z,11.87
2018-12-09T19:46:11.681Z,11.68
2018-12-09T19:48:42.661Z,11.97
2018-12-09T19:51:13.181Z,11.90
2018-12-09T19:53:43.858Z,11.63
2018-12-09T19:56:14.583Z,12.15
2018-12-09T19:58:45.530Z,12.20
2018-12-09T20:01:16.145Z,13.83
2018-12-09T20:03:46.785Z,12.97
2018-12-09T20:06:17.345Z,13.38
2018-12-09T20:08:48.081Z,12.77
2018-12-09T20:11:18.772Z,12.87
2018-12-09T20:13:48.969Z,13.20
2018-12-09T20:16:20.197Z,13.55
2018-12-09T20:18:50.529Z,13.43
2018-12-09T20:21:20.903Z,12.63
2018-12-09T20:23:51.303Z,13.97
2018-12-09T20:26:21.969Z,13.15
2018-12-09T20:28:52.450Z,12.23
2018-12-09T20:31:22.729Z,11.83
2018-12-09T20:33:53.564Z,11.23
2018-12-09T20:36:23.955Z,11.60
2018-12-09T20:38:54.427Z,10.40
2018-12-09T20:41:25.211Z,10.83
2018-12-09T20:43:55.746Z,10.43
2018-12-09T20:46:26.017Z,12.63
2018-12-09T20:48:56.760Z,13.70
2018-12-09T20:51:26.880Z,14.90
2018-12-09T20:53:57.383Z,15.17
2018-12-09T20:56:27.957Z,15.33
2018-12-09T20:58:58.357Z,13.20
2018-12-09T21:01:28.701Z,9.58
2018-12-09T21:03:58.973Z,6.97
2018-12-09T21:09:07.488Z,8.40
2018-12-09T21:11:38.573Z,8.67
2018-12-09T21:14:08.708Z,8.10
2018-12-09T21:16:38.737Z,8.07
2018-12-09T21:19:08.880Z,7.93
2018-12-09T21:21:39.075Z,8.70
2018-12-09T21:24:09.297Z,8.53
2018-12-09T21:26:40.164Z,8.50
2018-12-09T21:29:10.529Z,9.10
2018-12-09T21:31:40.928Z,9.17
2018-12-09T21:34:11.851Z,9.38
2018-12-09T21:36:42.401Z,9.40
2018-12-09T21:39:13.012Z,9.53
2018-12-09T21:41:43.141Z,9.23
2018-12-09T21:44:13.241Z,9.80
2018-12-09T21:46:43.910Z,8.90
2018-12-09T21:49:14.472Z,9.75
2018-12-09T21:51:44.818Z,9.97
2018-12-09T21:54:15.242Z,10.58
2018-12-09T21:56:45.336Z,9.87
2018-12-09T21:59:15.457Z,10.03
2018-12-09T22:01:45.854Z,10.33
2018-12-09T22:04:16.029Z,9.80
2018-12-09T22:06:46.921Z,10.00
2018-12-09T22:09:17.348Z,9.83
2018-12-09T22:11:47.694Z,9.70
2018-12-09T22:14:18.492Z,10.13
2018-12-09T22:16:48.958Z,9.83
2018-12-09T22:19:19.597Z,8.15
2018-12-09T22:21:50.501Z,9.10
2018-12-09T22:26:57.231Z,9.30
2018-12-09T22:29:27.352Z,8.57
2018-12-09T22:31:57.508Z,8.80
2018-12-09T22:34:27.524Z,7.13
2018-12-09T22:36:57.778Z,7.43
2018-12-09T22:39:27.729Z,6.83
2018-12-09T22:41:58.607Z,6.70
2018-12-09T22:44:28.901Z,6.60
2018-12-09T22:46:59.862Z,6.50
2018-12-09T22:49:29.964Z,6.70
2018-12-09T22:52:01.156Z,6.60
2018-12-09T22:54:31.590Z,6.05
2018-12-09T22:57:01.911Z,6.30
2018-12-09T23:02:13.680Z,7.50
2018-12-09T23:04:43.877Z,8.70
2018-12-09T23:07:19.310Z,8.37
2018-12-09T23:09:50.109Z,9.43
2018-12-09T23:12:20.468Z,10.33
2018-12-09T23:14:50.733Z,10.33
2018-12-09T23:17:21.556Z,11.27
2018-12-09T23:19:52.902Z,11.10
2018-12-09T23:22:23.092Z,10.53
2018-12-09T23:24:53.573Z,10.70
2018-12-09T23:27:25.459Z,10.47
2018-12-09T23:29:55.585Z,11.00
2018-12-09T23:32:26.187Z,11.00
2018-12-09T23:34:56.544Z,10.93
2018-12-09T23:37:26.774Z,11.80
2018-12-09T23:39:57.610Z,11.77
2018-12-09T23:42:27.956Z,11.13
2018-12-09T23:44:58.797Z,11.35
2018-12-09T23:47:33.143Z,11.87
2018-12-09T23:50:03.641Z,11.47
2018-12-09T23:52:34.476Z,12.23
2018-12-09T23:55:06.341Z,12.07
2018-12-09T23:57:37.636Z,10.93
